Regal Star — ESCM — position and weather

sailwx.info

Track history (hours):
 
Tides and Currents Weather Stations Pressure Air Temp Water Temp Dewpoint Dewpoint Depression Visibility Wind Speed Wind Dir Waves Ship Positions

Regal Star

Last reported at 2017-Sep-21 02:55 UTC. Time now 2017-Sep-21 03:15 UTC.
Position N 59°23' E 022°56'.

Length 157 m; draft 6.5 m.

Type: Ship (hazmat cat B). MMSI: 276554000.

Date/timePositionNaut miles runAvg speedWind from/ knotsBaromVisibWave heightAir tempDewpointWater temp
2017-Sep-21 02:55N 59°23' E 022°56'815.2
2017-Sep-21 02:25N 59°23' E 022°41'2715.6
2017-Sep-21 00:40N 59°29' E 021°49'315.7
2017-Sep-21 00:31N 59°30' E 021°44'815.9
2017-Sep-21 00:01N 59°32' E 021°29'815.9
2017-Sep-20 23:30N 59°35' E 021°14'815.9
2017-Sep-20 23:00N 59°37' E 020°59'4115.2
2017-Sep-20 20:20N 59°45' E 019°40'515.8
2017-Sep-20 20:00N 59°46' E 019°30'815.6
2017-Sep-20 19:30N 59°44' E 019°14'5 8.6
2017-Sep-20 18:53N 59°43' E 019°04'0 0.0
2017-Sep-20 18:29N 59°43' E 019°04'0 0.0
2017-Sep-20 17:59N 59°43' E 019°04'0 0.0
2017-Sep-20 17:29N 59°43' E 019°04'0 0.0
2017-Sep-20 16:59N 59°43' E 019°04'0 0.0
2017-Sep-20 16:29N 59°43' E 019°04'0 0.0
2017-Sep-20 15:59N 59°43' E 019°04'0 0.0
2017-Sep-20 15:29N 59°43' E 019°04'0 0.0
2017-Sep-20 14:59N 59°43' E 019°04'0 0.0
2017-Sep-20 11:32N 59°43' E 019°04'0 0.0
2017-Sep-20 11:29N 59°43' E 019°04'0 0.0
2017-Sep-20 10:59N 59°43' E 019°04'0 0.0
2017-Sep-20 10:29N 59°43' E 019°04'0 0.0
2017-Sep-20 08:20N 59°43' E 019°04'0 0.0
2017-Sep-20 07:59N 59°43' E 019°04'0 0.0
2017-Sep-20 07:29N 59°43' E 019°04'0 0.0
2017-Sep-20 06:59N 59°43' E 019°04'0 0.0
2017-Sep-20 06:14N 59°43' E 019°04'0 0.0
2017-Sep-20 05:59N 59°43' E 019°04'0 0.0
2017-Sep-20 05:29N 59°43' E 019°04'0 0.0
2017-Sep-20 04:59N 59°43' E 019°04'0 0.0
2017-Sep-20 04:29N 59°43' E 019°04'2 4.6
2017-Sep-20 04:01N 59°44' E 019°08'815.9
2017-Sep-20 03:30N 59°46' E 019°23'815.6
2017-Sep-20 03:00N 59°45' E 019°39'915.9
2017-Sep-20 02:26N 59°41' E 019°55'3615.5
2017-Sep-20 00:06N 59°30' E 021°03'216.0
2017-Sep-20 00:00N 59°30' E 021°06'815.9
2017-Sep-19 23:30N 59°28' E 021°22'815.8
2017-Sep-19 23:00N 59°26' E 021°37'815.6
2017-Sep-19 22:30N 59°24' E 021°52'5 0.2
2017-Sep-19 00:22N 59°29' E 021°48'615.5
2017-Sep-19 00:00N 59°31' E 021°38'815.6
2017-Sep-18 23:30N 59°33' E 021°23'815.5
2017-Sep-18 23:01N 59°35' E 021°08'815.4
2017-Sep-18 22:29N 59°38' E 020°53'4014.7
2017-Sep-18 19:47N 59°45' E 019°36'413.3
2017-Sep-18 19:29N 59°46' E 019°28'715.2
2017-Sep-18 19:00N 59°44' E 019°14'510.5
2017-Sep-18 18:31N 59°43' E 019°04'0 0.0
2017-Sep-18 17:59N 59°43' E 019°04'0 0.0
2017-Sep-18 17:29N 59°43' E 019°04'0 0.0
2017-Sep-18 16:59N 59°43' E 019°04'0 0.0
2017-Sep-18 16:29N 59°43' E 019°04'0 0.0
2017-Sep-18 15:59N 59°43' E 019°04'0 0.0
2017-Sep-18 15:29N 59°43' E 019°04'0 0.0
2017-Sep-18 14:59N 59°43' E 019°04'0 0.0
2017-Sep-18 14:29N 59°43' E 019°04'0 0.0
2017-Sep-18 13:59N 59°43' E 019°04'0 0.0
2017-Sep-18 13:26N 59°43' E 019°04'0 0.0
2017-Sep-18 12:59N 59°43' E 019°04'0 0.0
2017-Sep-18 12:29N 59°43' E 019°04'0 0.0
2017-Sep-18 11:59N 59°43' E 019°04'62 5.5
2017-Sep-18 00:52N 59°30' E 021°03'616.5
2017-Sep-18 00:30N 59°29' E 021°15'816.5
2017-Sep-18 00:00N 59°27' E 021°30'816.5
2017-Sep-17 23:31N 59°26' E 021°46'4 0.3
2017-Sep-17 11:34N 59°29' E 021°48'115.0
2017-Sep-17 11:31N 59°30' E 021°46'715.0
2017-Sep-17 11:01N 59°32' E 021°32'814.9
2017-Sep-17 10:30N 59°34' E 021°18'714.9
2017-Sep-17 10:00N 59°36' E 021°04'5 0.5
2017-Sep-17 00:24N 59°31' E 021°03'615.4
2017-Sep-17 00:00N 59°30' E 021°15'815.2
2017-Sep-16 23:30N 59°28' E 021°29'815.3
2017-Sep-16 23:00N 59°27' E 021°44'47 2.4
2017-Sep-16 03:30N 59°23' E 023°17'4513.5
2017-Sep-16 00:11N 59°29' E 021°50'315.7
2017-Sep-16 00:00N 59°30' E 021°44'815.7
2017-Sep-15 23:30N 59°32' E 021°29'815.6
2017-Sep-15 23:00N 59°34' E 021°15'815.6
2017-Sep-15 22:30N 59°36' E 020°60'3 0.1
2017-Sep-15 00:05N 59°38' E 021°04'115.5
2017-Sep-15 00:00N 59°38' E 021°07'815.6
2017-Sep-14 23:30N 59°37' E 021°22'815.6
2017-Sep-14 23:00N 59°35' E 021°37'815.3
2017-Sep-14 22:30N 59°34' E 021°52'815.1
2017-Sep-14 22:00N 59°33' E 022°07'4014.8
2017-Sep-14 19:18N 59°26' E 023°24'49 2.6
2017-Sep-14 00:46N 59°29' E 021°49'415.3
2017-Sep-14 00:30N 59°30' E 021°41'815.3
2017-Sep-14 00:00N 59°33' E 021°27'815.4
2017-Sep-13 23:30N 59°35' E 021°12'815.5
2017-Sep-13 22:59N 59°37' E 020°57'7 0.3
2017-Sep-13 00:05N 59°31' E 021°02'115.9
2017-Sep-13 00:00N 59°30' E 021°05'815.6
2017-Sep-12 23:31N 59°28' E 021°19'815.7
2017-Sep-12 23:01N 59°27' E 021°34'815.8
2017-Sep-12 22:31N 59°25' E 021°50'4815.1
2017-Sep-12 19:22N 59°22' E 023°23'48 2.6
2017-Sep-12 00:40N 59°29' E 021°50'315.6
2017-Sep-12 00:30N 59°30' E 021°45'815.6
2017-Sep-12 00:00N 59°32' E 021°30'815.5
2017-Sep-11 23:30N 59°34' E 021°15'815.4
2017-Sep-11 23:00N 59°37' E 021°01'4315.0
2017-Sep-11 20:10N 59°45' E 019°38'315.4
2017-Sep-11 20:00N 59°46' E 019°33'715.0
2017-Sep-11 19:30N 59°45' E 019°18'714.3
2017-Sep-11 19:00N 59°43' E 019°05'0 0.7
2017-Sep-11 18:27N 59°43' E 019°04'0 0.0
2017-Sep-11 18:00N 59°43' E 019°04'0 0.0
2017-Sep-11 17:30N 59°43' E 019°04'0 0.0
2017-Sep-11 16:54N 59°43' E 019°04'0 0.0
2017-Sep-11 16:30N 59°43' E 019°04'0 0.0
2017-Sep-11 16:00N 59°43' E 019°04'0 0.0
2017-Sep-11 15:30N 59°43' E 019°04'0 0.0
2017-Sep-11 15:00N 59°43' E 019°04'0 0.0
2017-Sep-11 14:30N 59°43' E 019°04'0 0.0
2017-Sep-11 14:00N 59°43' E 019°04'0 0.0
2017-Sep-11 13:24N 59°43' E 019°04'0 0.0
2017-Sep-11 13:00N 59°43' E 019°04'0 0.0
2017-Sep-11 12:30N 59°43' E 019°04'0 0.0
2017-Sep-11 11:54N 59°43' E 019°04'0 0.0
2017-Sep-11 11:27N 59°43' E 019°04'0 0.0
2017-Sep-11 11:00N 59°43' E 019°04'0 0.0
2017-Sep-11 10:30N 59°43' E 019°04'0 0.0
2017-Sep-11 09:57N 59°43' E 019°04'0 0.0
2017-Sep-11 09:30N 59°43' E 019°04'0 0.0
2017-Sep-11 09:00N 59°43' E 019°04'0 0.0
2017-Sep-11 08:30N 59°43' E 019°04'0 0.0
2017-Sep-11 08:00N 59°43' E 019°04'0 0.0
2017-Sep-11 07:30N 59°43' E 019°04'0 0.0
2017-Sep-11 07:00N 59°43' E 019°04'0 0.0
2017-Sep-11 06:30N 59°43' E 019°04'0 0.0
2017-Sep-11 06:00N 59°43' E 019°04'0 0.0
2017-Sep-11 05:30N 59°43' E 019°04'0 0.4
2017-Sep-11 05:01N 59°43' E 019°04'612.5
2017-Sep-11 04:31N 59°45' E 019°16'815.4
2017-Sep-11 04:00N 59°45' E 019°32'816.1
2017-Sep-11 03:30N 59°43' E 019°47'  
Track history (hours):
 
Tides and Currents Weather Stations Pressure Air Temp Water Temp Dewpoint Dewpoint Depression Visibility Wind Speed Wind Dir Waves Ship Positions

Regal Star

Last reported at 2017-Sep-21 02:55 UTC. Time now 2017-Sep-21 03:15 UTC.
Position N 59°23' E 022°56'.

Length 157 m; draft 6.5 m.

Type: Ship (hazmat cat B). MMSI: 276554000.

Date/timePositionNaut miles runAvg speedWind from/ knotsBaromVisibWave heightAir tempDewpointWater temp
2017-Sep-21 02:55N 59°23' E 022°56'815.2
2017-Sep-21 02:25N 59°23' E 022°41'2715.6
2017-Sep-21 00:40N 59°29' E 021°49'315.7
2017-Sep-21 00:31N 59°30' E 021°44'815.9
2017-Sep-21 00:01N 59°32' E 021°29'815.9
2017-Sep-20 23:30N 59°35' E 021°14'815.9
2017-Sep-20 23:00N 59°37' E 020°59'4115.2
2017-Sep-20 20:20N 59°45' E 019°40'515.8
2017-Sep-20 20:00N 59°46' E 019°30'815.6
2017-Sep-20 19:30N 59°44' E 019°14'5 8.6
2017-Sep-20 18:53N 59°43' E 019°04'0 0.0
2017-Sep-20 18:29N 59°43' E 019°04'0 0.0
2017-Sep-20 17:59N 59°43' E 019°04'0 0.0
2017-Sep-20 17:29N 59°43' E 019°04'0 0.0
2017-Sep-20 16:59N 59°43' E 019°04'0 0.0
2017-Sep-20 16:29N 59°43' E 019°04'0 0.0
2017-Sep-20 15:59N 59°43' E 019°04'0 0.0
2017-Sep-20 15:29N 59°43' E 019°04'0 0.0
2017-Sep-20 14:59N 59°43' E 019°04'0 0.0
2017-Sep-20 11:32N 59°43' E 019°04'0 0.0
2017-Sep-20 11:29N 59°43' E 019°04'0 0.0
2017-Sep-20 10:59N 59°43' E 019°04'0 0.0
2017-Sep-20 10:29N 59°43' E 019°04'0 0.0
2017-Sep-20 08:20N 59°43' E 019°04'0 0.0
2017-Sep-20 07:59N 59°43' E 019°04'0 0.0
2017-Sep-20 07:29N 59°43' E 019°04'0 0.0
2017-Sep-20 06:59N 59°43' E 019°04'0 0.0
2017-Sep-20 06:14N 59°43' E 019°04'0 0.0
2017-Sep-20 05:59N 59°43' E 019°04'0 0.0
2017-Sep-20 05:29N 59°43' E 019°04'0 0.0
2017-Sep-20 04:59N 59°43' E 019°04'0 0.0
2017-Sep-20 04:29N 59°43' E 019°04'2 4.6
2017-Sep-20 04:01N 59°44' E 019°08'815.9
2017-Sep-20 03:30N 59°46' E 019°23'815.6
2017-Sep-20 03:00N 59°45' E 019°39'915.9
2017-Sep-20 02:26N 59°41' E 019°55'3615.5
2017-Sep-20 00:06N 59°30' E 021°03'216.0
2017-Sep-20 00:00N 59°30' E 021°06'815.9
2017-Sep-19 23:30N 59°28' E 021°22'815.8
2017-Sep-19 23:00N 59°26' E 021°37'815.6
2017-Sep-19 22:30N 59°24' E 021°52'5 0.2
2017-Sep-19 00:22N 59°29' E 021°48'615.5
2017-Sep-19 00:00N 59°31' E 021°38'815.6
2017-Sep-18 23:30N 59°33' E 021°23'815.5
2017-Sep-18 23:01N 59°35' E 021°08'815.4
2017-Sep-18 22:29N 59°38' E 020°53'4014.7
2017-Sep-18 19:47N 59°45' E 019°36'413.3
2017-Sep-18 19:29N 59°46' E 019°28'715.2
2017-Sep-18 19:00N 59°44' E 019°14'510.5
2017-Sep-18 18:31N 59°43' E 019°04'0 0.0
2017-Sep-18 17:59N 59°43' E 019°04'0 0.0
2017-Sep-18 17:29N 59°43' E 019°04'0 0.0
2017-Sep-18 16:59N 59°43' E 019°04'0 0.0
2017-Sep-18 16:29N 59°43' E 019°04'0 0.0
2017-Sep-18 15:59N 59°43' E 019°04'0 0.0
2017-Sep-18 15:29N 59°43' E 019°04'0 0.0
2017-Sep-18 14:59N 59°43' E 019°04'0 0.0
2017-Sep-18 14:29N 59°43' E 019°04'0 0.0
2017-Sep-18 13:59N 59°43' E 019°04'0 0.0
2017-Sep-18 13:26N 59°43' E 019°04'0 0.0
2017-Sep-18 12:59N 59°43' E 019°04'0 0.0
2017-Sep-18 12:29N 59°43' E 019°04'0 0.0
2017-Sep-18 11:59N 59°43' E 019°04'62 5.5
2017-Sep-18 00:52N 59°30' E 021°03'616.5
2017-Sep-18 00:30N 59°29' E 021°15'816.5
2017-Sep-18 00:00N 59°27' E 021°30'816.5
2017-Sep-17 23:31N 59°26' E 021°46'4 0.3
2017-Sep-17 11:34N 59°29' E 021°48'115.0
2017-Sep-17 11:31N 59°30' E 021°46'715.0
2017-Sep-17 11:01N 59°32' E 021°32'814.9
2017-Sep-17 10:30N 59°34' E 021°18'714.9
2017-Sep-17 10:00N 59°36' E 021°04'5 0.5
2017-Sep-17 00:24N 59°31' E 021°03'615.4
2017-Sep-17 00:00N 59°30' E 021°15'815.2
2017-Sep-16 23:30N 59°28' E 021°29'815.3
2017-Sep-16 23:00N 59°27' E 021°44'47 2.4
2017-Sep-16 03:30N 59°23' E 023°17'4513.5
2017-Sep-16 00:11N 59°29' E 021°50'315.7
2017-Sep-16 00:00N 59°30' E 021°44'815.7
2017-Sep-15 23:30N 59°32' E 021°29'815.6
2017-Sep-15 23:00N 59°34' E 021°15'815.6
2017-Sep-15 22:30N 59°36' E 020°60'3 0.1
2017-Sep-15 00:05N 59°38' E 021°04'115.5
2017-Sep-15 00:00N 59°38' E 021°07'815.6
2017-Sep-14 23:30N 59°37' E 021°22'815.6
2017-Sep-14 23:00N 59°35' E 021°37'815.3
2017-Sep-14 22:30N 59°34' E 021°52'815.1
2017-Sep-14 22:00N 59°33' E 022°07'4014.8
2017-Sep-14 19:18N 59°26' E 023°24'49 2.6
2017-Sep-14 00:46N 59°29' E 021°49'415.3
2017-Sep-14 00:30N 59°30' E 021°41'815.3
2017-Sep-14 00:00N 59°33' E 021°27'815.4
2017-Sep-13 23:30N 59°35' E 021°12'815.5
2017-Sep-13 22:59N 59°37' E 020°57'7 0.3
2017-Sep-13 00:05N 59°31' E 021°02'115.9
2017-Sep-13 00:00N 59°30' E 021°05'815.6
2017-Sep-12 23:31N 59°28' E 021°19'815.7
2017-Sep-12 23:01N 59°27' E 021°34'815.8
2017-Sep-12 22:31N 59°25' E 021°50'4815.1
2017-Sep-12 19:22N 59°22' E 023°23'48 2.6
2017-Sep-12 00:40N 59°29' E 021°50'315.6
2017-Sep-12 00:30N 59°30' E 021°45'815.6
2017-Sep-12 00:00N 59°32' E 021°30'815.5
2017-Sep-11 23:30N 59°34' E 021°15'815.4
2017-Sep-11 23:00N 59°37' E 021°01'4315.0
2017-Sep-11 20:10N 59°45' E 019°38'315.4
2017-Sep-11 20:00N 59°46' E 019°33'715.0
2017-Sep-11 19:30N 59°45' E 019°18'714.3
2017-Sep-11 19:00N 59°43' E 019°05'0 0.7
2017-Sep-11 18:27N 59°43' E 019°04'0 0.0
2017-Sep-11 18:00N 59°43' E 019°04'0 0.0
2017-Sep-11 17:30N 59°43' E 019°04'0 0.0
2017-Sep-11 16:54N 59°43' E 019°04'0 0.0
2017-Sep-11 16:30N 59°43' E 019°04'0 0.0
2017-Sep-11 16:00N 59°43' E 019°04'0 0.0
2017-Sep-11 15:30N 59°43' E 019°04'0 0.0
2017-Sep-11 15:00N 59°43' E 019°04'0 0.0
2017-Sep-11 14:30N 59°43' E 019°04'0 0.0
2017-Sep-11 14:00N 59°43' E 019°04'0 0.0
2017-Sep-11 13:24N 59°43' E 019°04'0 0.0
2017-Sep-11 13:00N 59°43' E 019°04'0 0.0
2017-Sep-11 12:30N 59°43' E 019°04'0 0.0
2017-Sep-11 11:54N 59°43' E 019°04'0 0.0
2017-Sep-11 11:27N 59°43' E 019°04'0 0.0
2017-Sep-11 11:00N 59°43' E 019°04'0 0.0
2017-Sep-11 10:30N 59°43' E 019°04'0 0.0
2017-Sep-11 09:57N 59°43' E 019°04'0 0.0
2017-Sep-11 09:30N 59°43' E 019°04'0 0.0
2017-Sep-11 09:00N 59°43' E 019°04'0 0.0
2017-Sep-11 08:30N 59°43' E 019°04'0 0.0
2017-Sep-11 08:00N 59°43' E 019°04'0 0.0
2017-Sep-11 07:30N 59°43' E 019°04'0 0.0
2017-Sep-11 07:00N 59°43' E 019°04'0 0.0
2017-Sep-11 06:30N 59°43' E 019°04'0 0.0
2017-Sep-11 06:00N 59°43' E 019°04'0 0.0
2017-Sep-11 05:30N 59°43' E 019°04'0 0.4
2017-Sep-11 05:01N 59°43' E 019°04'612.5
2017-Sep-11 04:31N 59°45' E 019°16'815.4
2017-Sep-11 04:00N 59°45' E 019°32'816.1
2017-Sep-11 03:30N 59°43' E 019°47'  

Dump ship's entire track history